createdAt,value
2022-10-08T00:01:16.789Z,10.48
2022-10-08T00:03:47.345Z,9.68
2022-10-08T00:06:25.405Z,10.55
2022-10-08T00:09:01.793Z,11.50
2022-10-08T00:11:32.589Z,12.52
2022-10-08T00:14:02.158Z,12.15
2022-10-08T00:16:37.443Z,12.07
2022-10-08T00:19:08.076Z,11.77
2022-10-08T00:21:37.824Z,12.55
2022-10-08T00:24:07.330Z,12.23
2022-10-08T00:26:41.202Z,12.13
2022-10-08T00:29:13.733Z,12.10
2022-10-08T00:31:44.003Z,12.48
2022-10-08T00:34:14.005Z,12.10
2022-10-08T00:36:41.866Z,13.57
2022-10-08T00:39:13.619Z,11.73
2022-10-08T00:41:44.112Z,12.45
2022-10-08T00:44:55.542Z,11.98
2022-10-08T00:47:25.602Z,12.45
2022-10-08T00:49:56.115Z,11.48
2022-10-08T00:52:25.873Z,11.75
2022-10-08T00:54:53.241Z,12.80
2022-10-08T00:57:21.409Z,12.77
2022-10-08T00:59:49.008Z,12.25
2022-10-08T01:02:16.694Z,11.45
2022-10-08T01:04:44.266Z,12.23
2022-10-08T01:07:26.584Z,10.85
2022-10-08T01:10:10.635Z,11.98
2022-10-08T01:12:49.120Z,12.00
2022-10-08T01:15:32.784Z,12.82
2022-10-08T01:18:03.632Z,10.93
2022-10-08T01:20:48.912Z,9.35
2022-10-08T01:23:21.997Z,8.73
2022-10-08T01:26:26.797Z,7.32
2022-10-08T01:28:59.117Z,8.83
2022-10-08T01:31:36.058Z,8.40
2022-10-08T01:34:08.023Z,8.85
2022-10-08T01:36:43.330Z,9.15
2022-10-08T01:39:15.185Z,10.00
2022-10-08T01:41:44.172Z,9.23
2022-10-08T01:44:26.062Z,9.20
2022-10-08T01:46:59.241Z,9.05
2022-10-08T01:49:31.822Z,9.02
2022-10-08T01:52:07.927Z,9.07
2022-10-08T01:54:37.338Z,8.48
2022-10-08T01:57:05.867Z,8.57
2022-10-08T01:59:37.437Z,8.68
2022-10-08T02:02:22.931Z,9.48
2022-10-08T02:04:53.400Z,9.68
2022-10-08T02:07:32.226Z,8.48
2022-10-08T02:10:08.011Z,9.40
2022-10-08T02:12:36.385Z,9.52
2022-10-08T02:15:05.253Z,8.52
2022-10-08T02:17:57.601Z,10.48
2022-10-08T02:20:35.454Z,10.25
2022-10-08T02:23:29.919Z,9.90
2022-10-08T02:26:32.215Z,10.38
2022-10-08T02:29:05.471Z,11.68
2022-10-08T02:31:41.999Z,10.88
2022-10-08T02:34:16.713Z,10.50
2022-10-08T02:36:48.771Z,11.40
2022-10-08T02:39:16.931Z,9.73
2022-10-08T02:41:48.930Z,10.27
2022-10-08T02:44:20.891Z,9.88
2022-10-08T02:46:50.835Z,11.65
2022-10-08T02:49:24.319Z,10.07
2022-10-08T02:51:53.725Z,11.37
2022-10-08T02:54:23.304Z,10.65
2022-10-08T02:56:56.819Z,11.23
2022-10-08T02:59:25.218Z,9.75
2022-10-08T03:02:01.358Z,11.15
2022-10-08T03:04:32.823Z,10.70
2022-10-08T03:07:00.455Z,10.52
2022-10-08T03:09:31.811Z,10.93
2022-10-08T03:12:00.255Z,11.77
2022-10-08T03:14:28.772Z,11.00
2022-10-08T03:16:56.257Z,11.65
2022-10-08T03:19:23.979Z,10.57
2022-10-08T03:21:54.063Z,10.60
2022-10-08T03:24:21.568Z,11.07
2022-10-08T03:26:49.257Z,10.15
2022-10-08T03:29:16.611Z,10.00
2022-10-08T03:31:44.053Z,9.25
2022-10-08T03:34:11.685Z,10.00
2022-10-08T03:36:39.061Z,10.00
2022-10-08T03:39:06.402Z,10.30
2022-10-08T03:41:34.018Z,9.65
2022-10-08T03:44:01.492Z,9.93
2022-10-08T03:46:28.976Z,9.85
2022-10-08T03:48:56.695Z,10.70
2022-10-08T03:51:24.040Z,10.73
2022-10-08T03:53:51.396Z,10.10
2022-10-08T03:56:24.765Z,10.30
2022-10-08T03:58:57.483Z,9.70
2022-10-08T04:01:27.004Z,8.75
2022-10-08T04:03:54.740Z,7.78
2022-10-08T04:06:22.078Z,9.32
2022-10-08T04:08:50.954Z,8.75
2022-10-08T04:11:19.481Z,8.82
2022-10-08T04:13:46.802Z,8.70
2022-10-08T04:16:15.558Z,8.23
2022-10-08T04:18:44.084Z,9.15
2022-10-08T04:21:14.317Z,9.13
2022-10-08T04:23:42.689Z,9.05
2022-10-08T04:26:12.117Z,8.77
2022-10-08T04:28:41.041Z,8.88
2022-10-08T04:31:11.936Z,9.48
2022-10-08T04:33:39.877Z,8.75
2022-10-08T04:36:09.008Z,9.30
2022-10-08T04:38:36.425Z,9.05
2022-10-08T04:41:09.212Z,8.82
2022-10-08T04:43:37.609Z,10.00
2022-10-08T04:46:06.035Z,9.93
2022-10-08T04:48:33.408Z,10.35
2022-10-08T04:51:08.059Z,10.18
2022-10-08T04:53:38.349Z,9.60
2022-10-08T04:56:14.468Z,10.45
2022-10-08T04:58:42.284Z,9.82
2022-10-08T05:01:11.941Z,9.65
2022-10-08T05:03:41.376Z,11.05
2022-10-08T05:06:09.539Z,10.52
2022-10-08T05:08:36.974Z,10.85
2022-10-08T05:11:04.462Z,10.70
2022-10-08T05:13:32.682Z,9.80
2022-10-08T05:16:05.196Z,10.38
2022-10-08T05:18:33.747Z,10.43
2022-10-08T05:21:09.764Z,10.10
2022-10-08T05:23:37.663Z,10.52
2022-10-08T05:26:35.766Z,9.32
2022-10-08T05:29:10.985Z,10.85
2022-10-08T05:31:38.801Z,9.90
2022-10-08T05:34:06.282Z,11.15
2022-10-08T05:36:34.828Z,9.88
2022-10-08T05:39:04.737Z,9.55
2022-10-08T05:41:34.186Z,10.10
2022-10-08T05:44:04.935Z,9.38
2022-10-08T05:46:34.490Z,10.30
2022-10-08T05:49:04.181Z,10.27
2022-10-08T05:51:31.866Z,9.00
2022-10-08T05:54:00.286Z,9.18
2022-10-08T05:56:28.838Z,9.40
2022-10-08T05:58:56.234Z,8.98
2022-10-08T06:01:29.424Z,9.30
2022-10-08T06:04:08.144Z,9.32
2022-10-08T06:06:37.352Z,9.60
2022-10-08T06:09:05.812Z,9.30
2022-10-08T06:11:35.299Z,9.35
2022-10-08T06:14:03.291Z,8.75
2022-10-08T06:16:31.112Z,9.35
2022-10-08T06:18:58.629Z,9.70
2022-10-08T06:21:27.169Z,10.63
2022-10-08T06:24:05.477Z,10.77
2022-10-08T06:26:36.445Z,10.95
2022-10-08T06:29:10.051Z,11.88
2022-10-08T06:31:37.460Z,11.45
2022-10-08T06:34:05.250Z,11.27
2022-10-08T06:36:33.794Z,11.07
2022-10-08T06:39:11.172Z,11.43
2022-10-08T06:41:38.828Z,11.93
2022-10-08T06:44:08.150Z,12.02
2022-10-08T06:46:35.751Z,11.12
2022-10-08T06:49:05.997Z,13.05
2022-10-08T06:51:33.827Z,13.20
2022-10-08T06:54:07.358Z,13.70
2022-10-08T06:59:05.223Z,14.35
2022-10-08T07:01:34.175Z,13.82
2022-10-08T07:04:02.946Z,13.55
2022-10-08T07:06:30.297Z,14.18
2022-10-08T07:08:59.464Z,13.77
2022-10-08T07:11:28.081Z,14.05
2022-10-08T07:13:56.411Z,14.23
2022-10-08T07:16:25.406Z,14.23
2022-10-08T07:18:54.600Z,13.40
2022-10-08T07:21:22.825Z,12.90
2022-10-08T07:23:50.770Z,13.18
2022-10-08T07:26:20.765Z,12.65
2022-10-08T07:28:59.026Z,13.27
2022-10-08T07:31:29.713Z,12.15
2022-10-08T07:33:58.262Z,12.30
2022-10-08T07:36:27.217Z,11.98
2022-10-08T07:39:00.000Z,12.40
2022-10-08T07:41:28.088Z,11.65
2022-10-08T07:43:59.904Z,11.45
2022-10-08T07:46:28.536Z,12.88
2022-10-08T07:48:59.577Z,11.55
2022-10-08T07:51:29.208Z,16.67
2022-10-08T07:54:02.114Z,12.57
2022-10-08T07:56:32.731Z,12.25
2022-10-08T07:59:01.104Z,12.30
2022-10-08T08:01:30.218Z,12.15
2022-10-08T08:04:03.156Z,12.02
2022-10-08T08:06:31.915Z,11.27
2022-10-08T08:09:00.835Z,10.93
2022-10-08T08:11:29.303Z,11.65
2022-10-08T08:13:57.182Z,11.85
2022-10-08T08:16:26.658Z,11.25
2022-10-08T08:18:56.437Z,10.73
2022-10-08T08:21:29.276Z,11.27
2022-10-08T08:23:58.301Z,11.35
2022-10-08T08:26:32.759Z,11.75
2022-10-08T08:29:19.329Z,11.40
2022-10-08T08:31:48.464Z,11.02
2022-10-08T08:34:18.923Z,20.45
2022-10-08T08:36:48.909Z,10.88
2022-10-08T08:39:25.770Z,15.10
2022-10-08T08:42:14.765Z,10.50
2022-10-08T08:44:43.940Z,10.27
2022-10-08T08:47:20.504Z,10.52
2022-10-08T08:49:57.445Z,10.63
2022-10-08T08:52:27.214Z,10.68
2022-10-08T08:54:55.129Z,10.52
2022-10-08T08:57:38.546Z,9.95
2022-10-08T09:00:19.188Z,9.55
2022-10-08T09:02:56.298Z,9.05
2022-10-08T09:05:25.336Z,9.65
2022-10-08T09:07:58.853Z,9.25
2022-10-08T09:10:42.513Z,10.05
2022-10-08T09:13:14.754Z,10.15
2022-10-08T09:15:42.923Z,10.43
2022-10-08T09:18:13.065Z,9.05
2022-10-08T09:20:41.045Z,10.63
2022-10-08T09:23:21.388Z,9.85
2022-10-08T09:25:53.475Z,8.65
2022-10-08T09:28:52.220Z,9.05
2022-10-08T09:31:42.024Z,8.85
2022-10-08T09:34:18.791Z,8.07
2022-10-08T09:36:50.983Z,9.43
2022-10-08T09:39:22.824Z,7.90
2022-10-08T09:42:08.364Z,7.95
2022-10-08T09:45:00.683Z,8.63
2022-10-08T09:47:28.169Z,8.63
2022-10-08T09:50:06.893Z,8.55
2022-10-08T09:52:35.278Z,7.87
2022-10-08T09:55:08.358Z,7.78
2022-10-08T09:57:44.137Z,7.40
2022-10-08T10:00:39.449Z,7.20
2022-10-08T10:03:18.124Z,8.05
2022-10-08T10:05:51.279Z,8.15
2022-10-08T10:08:48.525Z,8.13
2022-10-08T10:11:37.046Z,6.93
2022-10-08T10:14:11.049Z,6.50
2022-10-08T10:16:43.196Z,6.50
2022-10-08T10:19:16.542Z,6.35
2022-10-08T10:21:54.695Z,5.57
2022-10-08T10:24:30.260Z,5.87
2022-10-08T10:27:03.578Z,6.47
2022-10-08T10:29:57.327Z,5.95
2022-10-08T10:32:32.021Z,5.03
2022-10-08T10:35:06.561Z,5.50
2022-10-08T10:37:40.042Z,5.03
2022-10-08T10:40:25.786Z,4.75
2022-10-08T10:42:59.722Z,4.95
2022-10-08T10:47:56.111Z,4.85
2022-10-08T10:50:50.723Z,4.75
2022-10-08T10:53:49.495Z,4.03
2022-10-08T10:56:18.811Z,4.43
2022-10-08T10:59:07.767Z,4.97
2022-10-08T11:01:53.291Z,4.22
2022-10-08T11:04:32.346Z,3.80
2022-10-08T11:07:03.214Z,4.12
2022-10-08T11:09:52.836Z,3.90
2022-10-08T11:12:39.183Z,3.65
2022-10-08T11:15:25.619Z,3.33
2022-10-08T11:18:02.273Z,3.37
2022-10-08T11:20:51.364Z,4.32
2022-10-08T11:23:30.856Z,3.78
2022-10-08T11:29:18.011Z,3.70
2022-10-08T11:31:46.685Z,3.80
2022-10-08T11:34:29.883Z,4.12
2022-10-08T11:37:22.372Z,3.95
2022-10-08T11:40:21.675Z,3.85
2022-10-08T11:43:12.717Z,3.80
2022-10-08T11:45:41.758Z,3.65
2022-10-08T11:48:42.019Z,3.40
2022-10-08T11:51:21.958Z,4.10
2022-10-08T11:54:20.640Z,3.67
2022-10-08T11:56:53.259Z,4.03
2022-10-08T11:59:45.153Z,3.70
2022-10-08T12:02:26.154Z,4.25
2022-10-08T12:04:56.273Z,4.22
2022-10-08T12:07:37.572Z,4.30
2022-10-08T12:10:05.103Z,3.95
2022-10-08T12:12:50.923Z,3.90
2022-10-08T12:15:24.615Z,4.60
2022-10-08T12:17:57.312Z,4.40
2022-10-08T12:20:32.882Z,4.43
2022-10-08T12:23:34.514Z,3.83
2022-10-08T12:26:02.848Z,4.30
2022-10-08T12:28:30.213Z,4.32
2022-10-08T12:31:00.452Z,4.35
2022-10-08T12:33:28.924Z,4.15
2022-10-08T12:35:59.239Z,4.18
2022-10-08T12:39:44.887Z,4.32
2022-10-08T12:42:26.503Z,3.78
2022-10-08T12:44:56.867Z,3.75
2022-10-08T12:47:36.427Z,3.92
2022-10-08T12:50:03.687Z,3.85
2022-10-08T12:52:35.483Z,4.53
2022-10-08T12:55:04.388Z,3.97
2022-10-08T12:57:39.386Z,4.65
2022-10-08T13:00:29.401Z,3.72
2022-10-08T13:03:12.833Z,4.62
2022-10-08T13:05:43.327Z,4.22
2022-10-08T13:08:17.712Z,4.18
2022-10-08T13:10:45.075Z,4.62
2022-10-08T13:13:35.803Z,4.43
2022-10-08T13:16:05.336Z,4.72
2022-10-08T13:18:34.704Z,4.60
2022-10-08T13:21:04.540Z,4.07
2022-10-08T13:23:35.606Z,3.90
2022-10-08T13:26:03.280Z,4.28
2022-10-08T13:28:58.719Z,4.28
2022-10-08T13:31:24.465Z,4.12
2022-10-08T13:33:51.990Z,4.62
2022-10-08T13:36:22.049Z,3.95
2022-10-08T13:38:49.471Z,4.43
2022-10-08T13:41:23.544Z,4.00
2022-10-08T13:43:51.414Z,4.90
2022-10-08T13:46:18.897Z,4.55
2022-10-08T13:48:46.313Z,4.45
2022-10-08T13:51:14.079Z,4.30
2022-10-08T13:53:45.482Z,5.05
2022-10-08T13:56:12.879Z,4.37
2022-10-08T13:58:40.560Z,4.30
2022-10-08T14:01:07.991Z,3.92
2022-10-08T14:03:35.674Z,4.60
2022-10-08T14:06:03.097Z,4.68
2022-10-08T14:08:31.437Z,4.82
2022-10-08T14:11:00.087Z,5.18
2022-10-08T14:13:29.353Z,4.47
2022-10-08T14:15:56.765Z,4.62
2022-10-08T14:18:24.418Z,4.87
2022-10-08T14:20:51.926Z,4.43
2022-10-08T14:23:20.312Z,4.57
2022-10-08T14:25:48.108Z,4.25
2022-10-08T14:28:15.553Z,4.07
2022-10-08T14:30:43.001Z,4.70
2022-10-08T14:33:11.783Z,4.75
2022-10-08T14:35:39.708Z,4.70
2022-10-08T14:38:08.623Z,5.15
2022-10-08T14:40:36.382Z,4.53
2022-10-08T14:43:03.728Z,4.68
2022-10-08T14:45:31.145Z,4.93
2022-10-08T14:47:58.782Z,4.90
2022-10-08T14:50:26.169Z,5.40
2022-10-08T14:52:53.500Z,5.68
2022-10-08T14:55:21.199Z,4.80
2022-10-08T14:57:48.550Z,4.60
2022-10-08T15:00:16.267Z,4.70
2022-10-08T15:02:43.882Z,4.97
2022-10-08T15:05:11.280Z,5.57
2022-10-08T15:07:38.781Z,4.50
2022-10-08T15:10:06.846Z,5.12
2022-10-08T15:12:34.471Z,5.70
2022-10-08T15:15:01.902Z,5.68
2022-10-08T15:17:29.545Z,5.30
2022-10-08T15:19:57.720Z,5.18
2022-10-08T15:22:25.070Z,4.75
2022-10-08T15:24:52.672Z,5.03
2022-10-08T15:27:21.092Z,5.00
2022-10-08T15:29:48.533Z,5.37
2022-10-08T15:32:16.165Z,5.43
2022-10-08T15:34:43.595Z,4.70
2022-10-08T15:37:10.937Z,4.93
2022-10-08T15:39:38.532Z,4.97
2022-10-08T15:42:06.167Z,4.57
2022-10-08T15:44:34.474Z,5.32
2022-10-08T15:47:06.053Z,5.43
2022-10-08T15:49:38.997Z,5.25
2022-10-08T15:52:26.553Z,4.70
2022-10-08T15:54:53.968Z,5.43
2022-10-08T15:57:21.679Z,5.12
2022-10-08T15:59:49.086Z,5.28
2022-10-08T16:02:17.838Z,5.87
2022-10-08T16:04:47.327Z,7.85
2022-10-08T16:07:15.113Z,8.45
2022-10-08T16:09:42.631Z,11.38
2022-10-08T16:12:10.440Z,8.80
2022-10-08T16:14:37.778Z,10.10
2022-10-08T16:17:05.230Z,20.83
2022-10-08T16:19:33.214Z,14.63
2022-10-08T16:22:01.347Z,14.05
2022-10-08T16:24:28.817Z,13.60
2022-10-08T16:26:56.484Z,12.52
2022-10-08T16:29:23.836Z,12.70
2022-10-08T16:31:51.236Z,12.68
2022-10-08T16:34:21.262Z,10.98
2022-10-08T16:36:48.931Z,9.52
2022-10-08T16:39:18.358Z,10.65
2022-10-08T16:41:46.200Z,11.95
2022-10-08T16:44:15.962Z,11.65
2022-10-08T16:46:45.597Z,10.38
2022-10-08T16:49:23.732Z,10.43
2022-10-08T16:51:58.045Z,12.00
2022-10-08T16:54:26.591Z,12.20
2022-10-08T16:56:54.426Z,13.73
2022-10-08T16:59:24.033Z,19.40
2022-10-08T17:01:54.250Z,19.55
2022-10-08T17:04:23.636Z,23.27
2022-10-08T17:06:51.626Z,19.95
2022-10-08T17:09:20.692Z,19.15
2022-10-08T17:11:48.507Z,18.87
2022-10-08T17:14:16.133Z,18.27
2022-10-08T17:16:45.140Z,18.52
2022-10-08T17:19:12.707Z,24.52
2022-10-08T17:21:40.487Z,22.75
2022-10-08T17:24:08.655Z,21.35
2022-10-08T17:26:36.136Z,20.23
2022-10-08T17:29:08.651Z,15.20
2022-10-08T17:31:37.145Z,12.32
2022-10-08T17:34:04.958Z,11.43
2022-10-08T17:36:34.961Z,11.90
2022-10-08T17:39:06.015Z,11.30
2022-10-08T17:41:38.977Z,11.20
2022-10-08T17:44:08.171Z,11.25
2022-10-08T17:46:38.746Z,10.93
2022-10-08T17:49:07.857Z,11.63
2022-10-08T17:51:35.973Z,10.20
2022-10-08T17:54:07.335Z,10.35
2022-10-08T17:56:35.167Z,10.40
2022-10-08T17:59:03.521Z,11.93
2022-10-08T18:01:33.785Z,11.30
2022-10-08T18:04:03.838Z,11.57
2022-10-08T18:06:32.817Z,10.82
2022-10-08T18:09:03.179Z,9.82
2022-10-08T18:11:32.891Z,11.68
2022-10-08T18:14:02.174Z,11.60
2022-10-08T18:16:29.684Z,11.00
2022-10-08T18:18:57.327Z,10.23
2022-10-08T18:21:24.964Z,10.30
2022-10-08T18:23:52.788Z,10.70
2022-10-08T18:26:27.719Z,11.45
2022-10-08T18:31:26.176Z,11.82
2022-10-08T18:34:05.507Z,11.40
2022-10-08T18:36:36.536Z,10.95
2022-10-08T18:39:10.667Z,11.43
2022-10-08T18:41:41.488Z,10.45
2022-10-08T18:44:15.904Z,11.63
2022-10-08T18:49:15.829Z,10.82
2022-10-08T18:51:44.941Z,10.20
2022-10-08T18:54:13.344Z,10.98
2022-10-08T18:56:42.382Z,10.27
2022-10-08T18:59:15.043Z,11.70
2022-10-08T19:01:45.514Z,11.52
2022-10-08T19:04:18.237Z,12.95
2022-10-08T19:07:05.457Z,11.98
2022-10-08T19:09:33.152Z,11.12
2022-10-08T19:12:01.237Z,10.93
2022-10-08T19:14:29.271Z,11.05
2022-10-08T19:16:56.639Z,11.70
2022-10-08T19:19:27.426Z,10.95
2022-10-08T19:21:55.947Z,10.15
2022-10-08T19:24:25.400Z,11.02
2022-10-08T19:26:53.944Z,9.48
2022-10-08T19:29:23.500Z,9.60
2022-10-08T19:31:51.675Z,10.23
2022-10-08T19:34:22.113Z,10.23
2022-10-08T19:36:49.974Z,9.85
2022-10-08T19:39:21.019Z,9.50
2022-10-08T19:41:49.519Z,9.75
2022-10-08T19:44:17.781Z,9.82
2022-10-08T19:46:46.586Z,9.65
2022-10-08T19:49:14.928Z,8.95
2022-10-08T19:51:42.608Z,9.52
2022-10-08T19:54:10.847Z,9.75
2022-10-08T19:56:38.476Z,9.50
2022-10-08T19:59:06.254Z,9.25
2022-10-08T20:01:39.544Z,10.38
2022-10-08T20:04:08.216Z,9.77
2022-10-08T20:06:39.134Z,10.60
2022-10-08T20:09:10.144Z,11.60
2022-10-08T20:11:38.037Z,11.25
2022-10-08T20:14:05.807Z,10.80
2022-10-08T20:16:36.710Z,10.88
2022-10-08T20:19:06.695Z,10.18
2022-10-08T20:21:37.022Z,10.15
2022-10-08T20:24:05.140Z,9.77
2022-10-08T20:26:34.848Z,9.73
2022-10-08T20:29:14.179Z,10.63
2022-10-08T20:31:47.502Z,9.50
2022-10-08T20:34:18.143Z,10.05
2022-10-08T20:36:46.333Z,10.00
2022-10-08T20:39:14.739Z,9.93
2022-10-08T20:41:42.809Z,9.93
2022-10-08T20:44:10.568Z,10.63
2022-10-08T20:46:38.566Z,9.45
2022-10-08T20:49:06.625Z,9.80
2022-10-08T20:51:34.142Z,9.80
2022-10-08T20:54:07.098Z,9.70
2022-10-08T20:56:39.543Z,9.75
2022-10-08T20:59:08.630Z,8.70
2022-10-08T21:01:38.462Z,8.85
2022-10-08T21:04:07.105Z,9.18
2022-10-08T21:06:45.864Z,9.10
2022-10-08T21:09:14.210Z,9.73
2022-10-08T21:11:42.364Z,8.65
2022-10-08T21:14:10.062Z,9.32
2022-10-08T21:16:39.654Z,9.27
2022-10-08T21:19:14.556Z,9.15
2022-10-08T21:21:42.471Z,9.18
2022-10-08T21:24:09.897Z,8.98
2022-10-08T21:26:39.704Z,9.13
2022-10-08T21:29:10.006Z,8.57
2022-10-08T21:31:39.272Z,8.30
2022-10-08T21:34:07.304Z,8.40
2022-10-08T21:36:37.505Z,8.32
2022-10-08T21:39:06.787Z,8.85
2022-10-08T21:41:36.700Z,7.97
2022-10-08T21:44:06.523Z,9.52
2022-10-08T21:46:37.028Z,9.18
2022-10-08T21:49:11.295Z,8.25
2022-10-08T21:51:39.075Z,9.07
2022-10-08T21:54:06.744Z,7.72
2022-10-08T21:56:36.846Z,8.13
2022-10-08T21:59:05.908Z,9.23
2022-10-08T22:01:42.677Z,8.27
2022-10-08T22:04:12.961Z,8.50
2022-10-08T22:06:45.395Z,7.62
2022-10-08T22:09:17.751Z,8.63
2022-10-08T22:11:45.237Z,8.48
2022-10-08T22:14:12.960Z,8.57
2022-10-08T22:16:40.388Z,7.70
2022-10-08T22:19:07.836Z,8.07
2022-10-08T22:21:35.495Z,8.52
2022-10-08T22:24:03.375Z,8.13
2022-10-08T22:26:33.274Z,8.27
2022-10-08T22:29:01.227Z,8.32
2022-10-08T22:31:28.797Z,8.40
2022-10-08T22:33:56.235Z,9.25
2022-10-08T22:36:27.606Z,9.35
2022-10-08T22:38:55.344Z,9.52
2022-10-08T22:41:25.081Z,10.13
2022-10-08T22:43:53.597Z,9.65
2022-10-08T22:46:23.993Z,10.13
2022-10-08T22:48:51.520Z,9.38
2022-10-08T22:51:21.651Z,10.20
2022-10-08T22:53:49.074Z,10.20
2022-10-08T22:56:19.411Z,10.68
2022-10-08T22:58:47.997Z,10.27
2022-10-08T23:01:20.628Z,10.02
2022-10-08T23:03:48.920Z,10.57
2022-10-08T23:06:16.273Z,10.73
2022-10-08T23:08:45.300Z,10.00
2022-10-08T23:11:14.444Z,9.68
2022-10-08T23:13:45.527Z,10.25
2022-10-08T23:16:15.251Z,10.27
2022-10-08T23:18:44.802Z,10.38
2022-10-08T23:21:17.131Z,9.75
2022-10-08T23:23:46.316Z,9.85
2022-10-08T23:26:14.574Z,9.65
2022-10-08T23:28:43.001Z,10.00
2022-10-08T23:31:13.228Z,9.93
2022-10-08T23:33:43.224Z,9.77
2022-10-08T23:36:13.832Z,9.73
2022-10-08T23:38:41.565Z,9.43
2022-10-08T23:41:10.379Z,9.30
2022-10-08T23:43:43.233Z,8.90
2022-10-08T23:46:12.521Z,8.98
2022-10-08T23:48:40.455Z,9.20
2022-10-08T23:51:08.814Z,9.88
2022-10-08T23:53:36.622Z,9.52
2022-10-08T23:56:05.076Z,9.57
2022-10-08T23:58:32.784Z,10.23
